Time;durP1;ratioP1;P1;durP2;ratioP2;P2;SDS_P1;SDS_P2;PMS_P1;PMS_P2;Temp;Humidity;BMP_temperature;BMP_pressure;BME280_temperature;BME280_humidity;BME280_pressure;Samples;Min_cycle;Max_cycle;Signal;HPM_P1;HPM_P2
2021/08/27 00:02:20;;;;;;;3.73;2.57;;;12.80;99.90;;;;;;5033174;28;20464;-68
2021/08/27 00:04:49;;;;;;;4.17;2.37;;;12.80;99.90;;;;;;5032693;28;20420;-68
2021/08/27 00:07:18;;;;;;;2.40;2.00;;;12.80;99.90;;;;;;5033358;28;20407;-68
2021/08/27 00:09:46;;;;;;;2.33;2.00;;;12.80;99.90;;;;;;5033413;28;20669;-69
2021/08/27 00:12:15;;;;;;;2.50;2.20;;;12.80;99.90;;;;;;5033973;28;20585;-68
2021/08/27 00:14:43;;;;;;;3.63;2.43;;;12.80;99.90;;;;;;5032706;28;20506;-68
2021/08/27 00:17:12;;;;;;;5.13;2.93;;;12.80;99.90;;;;;;5033025;28;20919;-68
2021/08/27 00:19:40;;;;;;;2.77;2.30;;;12.80;99.90;;;;;;5032889;28;20416;-68
2021/08/27 00:22:08;;;;;;;3.10;2.80;;;12.80;99.90;;;;;;5033336;28;20857;-68
2021/08/27 00:24:38;;;;;;;3.07;2.00;;;12.70;99.90;;;;;;5033043;28;20464;-69
2021/08/27 00:27:06;;;;;;;5.83;2.50;;;12.80;99.90;;;;;;5032658;28;20424;-68
2021/08/27 00:29:34;;;;;;;2.27;2.07;;;12.70;99.90;;;;;;5032740;28;20986;-68
2021/08/27 00:32:02;;;;;;;3.97;2.60;;;12.70;99.90;;;;;;5032674;28;20839;-68
2021/08/27 00:34:30;;;;;;;2.40;2.20;;;12.70;99.90;;;;;;5032851;28;20782;-68
2021/08/27 00:37:00;;;;;;;7.10;2.47;;;12.70;99.90;;;;;;5032275;28;20796;-68
2021/08/27 00:39:28;;;;;;;2.80;2.40;;;12.70;99.90;;;;;;5032313;28;20403;-69
2021/08/27 00:41:58;;;;;;;3.00;2.13;;;12.70;99.90;;;;;;5032450;28;20538;-69
2021/08/27 00:44:26;;;;;;;4.53;3.33;;;12.70;99.90;;;;;;5032151;28;20410;-69
2021/08/27 00:46:54;;;;;;;4.77;2.27;;;12.70;99.90;;;;;;5031587;28;20913;-68
2021/08/27 00:49:23;;;;;;;3.00;2.70;;;12.70;99.90;;;;;;5014364;28;20471;-68
2021/08/27 00:51:51;;;;;;;3.73;2.90;;;12.70;99.90;;;;;;5032235;28;20429;-68
2021/08/27 00:54:20;;;;;;;3.03;2.73;;;12.70;99.90;;;;;;5032214;28;20757;-68
2021/08/27 00:56:49;;;;;;;4.57;2.40;;;12.70;99.90;;;;;;5031673;28;20444;-69
2021/08/27 00:59:19;;;;;;;3.03;2.73;;;12.80;99.90;;;;;;5032272;28;20431;-67
2021/08/27 01:01:47;;;;;;;3.20;2.37;;;12.90;99.90;;;;;;5031925;28;20529;-67
2021/08/27 01:04:16;;;;;;;2.53;2.27;;;12.80;99.90;;;;;;5032227;28;20807;-68
2021/08/27 01:06:50;;;;;;;7.40;2.50;;;12.80;99.90;;;;;;5032013;28;20402;-69
2021/08/27 01:09:29;;;;;;;2.87;2.40;;;12.80;99.90;;;;;;5033176;28;20442;-68
2021/08/27 01:12:02;;;;;;;2.60;2.20;;;12.80;99.90;;;;;;5032677;28;20443;-71
2021/08/27 01:14:37;;;;;;;3.03;2.70;;;12.70;99.90;;;;;;5032270;28;20465;-67
2021/08/27 01:17:12;;;;;;;4.57;2.70;;;12.80;99.90;;;;;;5032089;28;20503;-69
2021/08/27 01:20:01;;;;;;;3.23;2.10;;;12.80;99.90;;;;;;5031656;28;20431;-67
2021/08/27 01:22:53;;;;;;;2.80;2.07;;;12.80;99.90;;;;;;5032369;28;20422;-69
2021/08/27 01:25:22;;;;;;;2.80;1.80;;;12.80;99.90;;;;;;5032060;28;20463;-69
2021/08/27 01:27:53;;;;;;;2.67;1.77;;;12.80;99.90;;;;;;5031641;28;20959;-69
2021/08/27 01:30:30;;;;;;;2.77;2.10;;;12.80;99.90;;;;;;5031759;28;20819;-68
2021/08/27 01:33:07;;;;;;;4.50;3.73;;;12.70;99.90;;;;;;5031453;28;20814;-68
2021/08/27 01:35:40;;;;;;;2.80;2.20;;;12.80;99.90;;;;;;5031952;28;20402;-68
2021/08/27 01:38:11;;;;;;;5.10;2.60;;;12.80;99.90;;;;;;5031602;28;20503;-69
2021/08/27 01:40:41;;;;;;;6.20;2.67;;;12.80;99.90;;;;;;5013538;28;20429;-68
2021/08/27 01:43:13;;;;;;;2.80;2.43;;;12.70;99.90;;;;;;5031709;28;20444;-68
2021/08/27 01:45:43;;;;;;;2.57;2.37;;;12.70;99.90;;;;;;5031584;28;20417;-68
2021/08/27 01:48:12;;;;;;;5.63;2.77;;;12.70;99.90;;;;;;5031755;28;20759;-69
2021/08/27 01:50:43;;;;;;;3.30;2.47;;;12.70;99.90;;;;;;5031394;28;20520;-69
2021/08/27 01:53:11;;;;;;;3.67;2.37;;;12.70;99.90;;;;;;5031170;28;20833;-69
2021/08/27 01:55:44;;;;;;;4.40;2.37;;;12.60;99.90;;;;;;5030899;28;20406;-67
2021/08/27 01:58:13;;;;;;;3.93;3.00;;;12.60;99.90;;;;;;5030829;28;20395;-68
2021/08/27 02:00:42;;;;;;;5.00;2.70;;;12.70;99.90;;;;;;5031308;28;20432;-68
2021/08/27 02:03:11;;;;;;;2.33;2.10;;;12.70;99.90;;;;;;5031092;28;20484;-68
2021/08/27 02:05:40;;;;;;;5.30;3.20;;;12.70;99.90;;;;;;5030795;28;20426;-68
2021/08/27 02:08:10;;;;;;;2.60;2.40;;;12.70;99.90;;;;;;5031109;28;20406;-68
2021/08/27 02:10:39;;;;;;;3.20;2.90;;;12.70;99.90;;;;;;5030715;28;20442;-68
2021/08/27 02:13:08;;;;;;;4.27;2.50;;;12.70;99.90;;;;;;5030948;28;20875;-68
2021/08/27 02:15:37;;;;;;;3.63;2.57;;;12.70;99.90;;;;;;5030797;28;20505;-69
2021/08/27 02:18:05;;;;;;;2.87;2.67;;;12.70;99.90;;;;;;5031326;28;20519;-68
2021/08/27 02:20:35;;;;;;;3.10;2.77;;;12.70;99.90;;;;;;5030960;28;20422;-69
2021/08/27 02:23:06;;;;;;;3.07;2.77;;;12.80;99.90;;;;;;5031046;28;20447;-69
2021/08/27 02:25:38;;;;;;;3.00;2.70;;;12.80;99.90;;;;;;5030979;28;20391;-68
2021/08/27 02:28:07;;;;;;;3.00;2.77;;;12.80;99.90;;;;;;5030866;28;20428;-68
2021/08/27 02:30:36;;;;;;;2.70;2.33;;;12.80;99.90;;;;;;5030962;28;20452;-68
2021/08/27 02:33:09;;;;;;;3.97;2.80;;;12.70;99.90;;;;;;5030900;28;20440;-68
2021/08/27 02:35:38;;;;;;;4.83;3.00;;;12.80;99.90;;;;;;5030501;28;20431;-68
2021/08/27 02:38:08;;;;;;;5.13;2.60;;;12.80;99.90;;;;;;5030942;28;20855;-68
2021/08/27 02:40:38;;;;;;;3.80;3.00;;;12.80;99.90;;;;;;5030732;28;20407;-69
2021/08/27 02:43:06;;;;;;;4.67;3.20;;;13.00;99.90;;;;;;5030545;28;20479;-68
2021/08/27 02:45:34;;;;;;;2.27;2.07;;;12.90;99.90;;;;;;5030169;28;20425;-69
2021/08/27 02:48:03;;;;;;;3.20;2.50;;;12.90;99.90;;;;;;5030488;28;20476;-69
2021/08/27 02:50:35;;;;;;;2.50;2.30;;;12.80;99.90;;;;;;5030235;28;20439;-68
2021/08/27 02:53:08;;;;;;;3.23;2.33;;;12.90;99.90;;;;;;5030522;28;20476;-68
2021/08/27 02:55:42;;;;;;;2.50;2.30;;;12.90;99.90;;;;;;5030067;28;20497;-68
2021/08/27 02:58:14;;;;;;;2.50;2.30;;;12.90;99.90;;;;;;5030559;28;20420;-68
2021/08/27 03:03:26;;;;;;;2.37;2.10;;;12.90;99.90;;;;;;5009923;28;20460;-69
2021/08/27 03:06:01;;;;;;;2.87;2.57;;;13.00;99.90;;;;;;5011954;28;20893;-71
2021/08/27 03:08:31;;;;;;;3.13;2.07;;;13.10;99.90;;;;;;5011839;28;20446;-71
2021/08/27 03:11:03;;;;;;;2.57;2.37;;;13.20;99.90;;;;;;5014662;28;20458;-70
2021/08/27 03:13:39;;;;;;;1.90;1.67;;;13.10;99.90;;;;;;5015853;28;20491;-70
2021/08/27 03:16:11;;;;;;;1.83;1.67;;;13.10;99.90;;;;;;5015488;28;20483;-70
2021/08/27 03:18:47;;;;;;;2.03;1.20;;;13.10;99.90;;;;;;5015432;28;20923;-69
2021/08/27 03:21:19;;;;;;;2.60;1.37;;;13.10;99.90;;;;;;5016079;28;20456;-70
2021/08/27 03:23:51;;;;;;;1.50;1.40;;;13.20;99.90;;;;;;5015456;28;20475;-70
2021/08/27 03:26:24;;;;;;;1.60;1.20;;;13.10;99.90;;;;;;5015256;28;20824;-70
2021/08/27 03:28:56;;;;;;;1.87;1.30;;;13.10;99.90;;;;;;5015316;28;20439;-70
2021/08/27 03:31:25;;;;;;;2.60;1.20;;;13.10;99.90;;;;;;5015061;28;20447;-69
2021/08/27 03:33:55;;;;;;;1.77;1.13;;;13.10;99.90;;;;;;5015420;28;20425;-69
2021/08/27 03:36:26;;;;;;;2.43;1.50;;;13.00;99.90;;;;;;5015213;28;20447;-69
2021/08/27 03:38:56;;;;;;;1.87;1.40;;;13.10;99.90;;;;;;5015169;28;20522;-68
2021/08/27 03:41:30;;;;;;;1.20;1.10;;;13.10;99.90;;;;;;5015157;28;20411;-70
2021/08/27 03:44:00;;;;;;;1.43;1.00;;;13.20;99.90;;;;;;5015402;28;20395;-69
2021/08/27 03:46:28;;;;;;;2.10;1.57;;;13.10;99.90;;;;;;5015419;28;20511;-69
2021/08/27 03:48:57;;;;;;;1.20;1.10;;;13.20;99.90;;;;;;4997993;28;20436;-71
2021/08/27 03:51:27;;;;;;;1.50;1.10;;;13.10;99.90;;;;;;5014968;28;20812;-70
2021/08/27 03:54:15;;;;;;;1.10;0.90;;;13.10;99.90;;;;;;5019840;28;20452;-72
2021/08/27 03:56:45;;;;;;;1.83;1.33;;;13.10;99.90;;;;;;5008155;28;20411;-70
2021/08/27 03:59:13;;;;;;;1.03;0.90;;;13.10;99.90;;;;;;5024621;28;20399;-70
2021/08/27 04:01:42;;;;;;;1.73;1.50;;;13.00;99.90;;;;;;5017060;28;20953;-70
2021/08/27 04:04:19;;;;;;;3.10;1.10;;;13.00;99.90;;;;;;4996586;28;20802;-70
2021/08/27 04:06:54;;;;;;;2.40;1.00;;;12.90;99.90;;;;;;4996097;28;20821;-71
2021/08/27 04:09:22;;;;;;;3.73;1.20;;;12.80;99.90;;;;;;4995117;28;20483;-70
2021/08/27 04:11:52;;;;;;;1.50;1.10;;;12.90;99.90;;;;;;4995046;28;21074;-70
2021/08/27 04:14:20;;;;;;;1.63;1.50;;;13.00;99.90;;;;;;4995143;28;20429;-70
2021/08/27 04:16:48;;;;;;;1.47;1.20;;;13.00;99.90;;;;;;4994567;28;20933;-70
2021/08/27 04:19:16;;;;;;;1.17;1.07;;;13.00;99.90;;;;;;4995013;28;20430;-70
2021/08/27 04:21:46;;;;;;;1.50;1.20;;;13.20;99.90;;;;;;4993490;28;20428;-72
2021/08/27 04:24:15;;;;;;;3.70;1.40;;;13.10;99.90;;;;;;4995557;28;20421;-72
2021/08/27 04:26:43;;;;;;;1.30;0.97;;;13.20;99.90;;;;;;4995090;28;20446;-73
2021/08/27 04:29:14;;;;;;;1.83;1.20;;;13.20;99.90;;;;;;4994888;28;20426;-72
2021/08/27 04:31:42;;;;;;;2.23;1.57;;;13.20;99.90;;;;;;4994825;28;20470;-71
2021/08/27 04:34:10;;;;;;;3.00;1.53;;;13.10;99.90;;;;;;4995060;28;20872;-69
2021/08/27 04:36:38;;;;;;;2.17;1.97;;;13.10;99.90;;;;;;4993478;28;20477;-71
2021/08/27 04:39:06;;;;;;;1.73;1.63;;;13.00;99.90;;;;;;4994199;28;20432;-70
2021/08/27 04:41:34;;;;;;;3.30;2.70;;;13.00;99.90;;;;;;4994491;28;20831;-70
2021/08/27 04:44:03;;;;;;;2.37;2.17;;;13.00;99.90;;;;;;4994727;28;20415;-69
2021/08/27 04:46:32;;;;;;;1.80;1.67;;;13.00;99.90;;;;;;4995000;28;20438;-70
2021/08/27 04:49:00;;;;;;;2.83;2.00;;;13.00;99.90;;;;;;4994691;28;20426;-69
2021/08/27 04:51:29;;;;;;;2.37;2.10;;;13.00;99.90;;;;;;4994802;28;20473;-69
2021/08/27 04:53:57;;;;;;;4.63;2.10;;;13.00;99.90;;;;;;4994825;28;20493;-69
2021/08/27 04:56:25;;;;;;;2.23;2.03;;;13.00;99.90;;;;;;4994746;28;20496;-69
2021/08/27 04:58:54;;;;;;;3.50;2.37;;;13.10;99.90;;;;;;4978511;28;20534;-70
2021/08/27 05:01:22;;;;;;;3.50;2.00;;;13.10;99.90;;;;;;5000187;28;20475;-70
2021/08/27 05:03:52;;;;;;;4.20;3.73;;;13.10;99.90;;;;;;5016506;28;20981;-70
2021/08/27 05:06:20;;;;;;;2.80;2.40;;;13.10;99.90;;;;;;5018393;28;20454;-70
2021/08/27 05:08:48;;;;;;;4.07;2.70;;;13.20;99.90;;;;;;5022218;28;20433;-71
2021/08/27 05:11:16;;;;;;;3.40;2.33;;;13.20;99.90;;;;;;5022506;28;20472;-71
2021/08/27 05:13:44;;;;;;;4.87;2.27;;;13.20;99.90;;;;;;5021627;28;20425;-70
2021/08/27 05:16:12;;;;;;;4.63;2.40;;;13.20;99.90;;;;;;5020252;28;20524;-70
2021/08/27 05:18:40;;;;;;;3.13;2.83;;;13.20;99.90;;;;;;5016229;28;20421;-70
2021/08/27 05:21:14;;;;;;;3.27;2.97;;;13.30;99.90;;;;;;5015076;28;20503;-71
2021/08/27 05:23:42;;;;;;;3.60;2.83;;;13.30;99.90;;;;;;5015008;28;20788;-69
2021/08/27 05:26:10;;;;;;;2.53;2.13;;;13.30;99.90;;;;;;4998650;28;20528;-71
2021/08/27 05:28:38;;;;;;;2.77;2.47;;;13.30;99.90;;;;;;4998200;28;20408;-70
2021/08/27 05:31:06;;;;;;;2.23;2.03;;;13.30;99.90;;;;;;5019599;28;20503;-70
2021/08/27 05:33:34;;;;;;;2.63;2.07;;;13.30;99.90;;;;;;5007002;28;20810;-70
2021/08/27 05:36:02;;;;;;;4.40;2.30;;;13.40;99.90;;;;;;5026910;28;20495;-71
2021/08/27 05:38:32;;;;;;;3.63;3.10;;;13.50;99.90;;;;;;5029254;28;20427;-70
2021/08/27 05:41:00;;;;;;;3.10;2.80;;;13.50;99.90;;;;;;5013660;28;20464;-70
2021/08/27 05:43:28;;;;;;;5.37;3.33;;;13.60;99.90;;;;;;5013617;28;20476;-71
2021/08/27 05:45:56;;;;;;;4.07;2.80;;;13.60;99.90;;;;;;5013177;28;20429;-71
2021/08/27 05:48:24;;;;;;;4.13;3.30;;;13.70;99.90;;;;;;5012802;28;20516;-70
2021/08/27 05:50:52;;;;;;;2.80;2.37;;;13.80;99.90;;;;;;5012680;28;20892;-70
2021/08/27 05:53:20;;;;;;;5.27;3.30;;;13.80;99.90;;;;;;5012919;28;20910;-69
2021/08/27 05:55:50;;;;;;;3.23;2.90;;;13.80;99.90;;;;;;5012396;28;20483;-70
2021/08/27 05:58:18;;;;;;;3.17;2.67;;;14.00;99.90;;;;;;4995317;28;20436;-70
2021/08/27 06:00:46;;;;;;;3.43;2.50;;;14.00;99.90;;;;;;5012781;28;20442;-69
2021/08/27 06:03:14;;;;;;;4.20;1.90;;;14.40;99.90;;;;;;5012647;28;20473;-70
2021/08/27 06:05:45;;;;;;;3.47;2.57;;;14.80;99.90;;;;;;5012855;28;20436;-72
2021/08/27 06:08:13;;;;;;;2.30;1.97;;;15.30;99.90;;;;;;5012893;28;20450;-71
2021/08/27 06:10:41;;;;;;;1.93;1.60;;;15.60;99.90;;;;;;5011580;28;20425;-70
2021/08/27 06:13:10;;;;;;;1.60;1.50;;;15.50;99.90;;;;;;5010558;28;20446;-71
2021/08/27 06:15:42;;;;;;;2.10;1.70;;;15.10;99.90;;;;;;5012431;28;20448;-70
2021/08/27 06:18:11;;;;;;;2.43;1.90;;;14.60;99.90;;;;;;5012693;28;20795;-70
2021/08/27 06:20:39;;;;;;;2.70;1.93;;;14.40;99.90;;;;;;5011680;28;20954;-71
2021/08/27 06:23:08;;;;;;;3.27;2.13;;;14.20;99.90;;;;;;5011493;28;20858;-70
2021/08/27 06:25:36;;;;;;;3.07;2.77;;;14.10;99.90;;;;;;4994587;28;20921;-70
2021/08/27 06:28:04;;;;;;;2.33;1.87;;;14.00;99.90;;;;;;5012212;28;20404;-71
2021/08/27 06:30:34;;;;;;;2.13;1.93;;;13.90;99.90;;;;;;5012595;28;20404;-73
2021/08/27 06:33:03;;;;;;;2.50;2.30;;;13.90;99.90;;;;;;5012596;28;20530;-69
2021/08/27 06:35:31;;;;;;;2.77;2.30;;;13.80;99.90;;;;;;5012326;28;20429;-71
2021/08/27 06:40:45;;;;;;;3.33;1.90;;;13.70;99.90;;;;;;5011763;28;20853;-71
2021/08/27 06:43:14;;;;;;;5.40;2.27;;;13.60;99.90;;;;;;5012236;28;20468;-70
2021/08/27 06:45:43;;;;;;;2.60;2.00;;;13.70;99.90;;;;;;5014444;28;20464;-71
2021/08/27 06:48:11;;;;;;;2.00;1.80;;;13.60;99.90;;;;;;5009431;28;20453;-71
2021/08/27 06:50:40;;;;;;;3.23;2.20;;;13.70;99.90;;;;;;4992089;28;20754;-69
2021/08/27 06:53:09;;;;;;;1.80;1.57;;;13.70;99.90;;;;;;4996210;28;20837;-70
2021/08/27 06:55:37;;;;;;;2.63;2.00;;;13.70;99.90;;;;;;4996497;28;20430;-70
2021/08/27 06:58:05;;;;;;;11.37;1.83;;;13.80;99.90;;;;;;4996526;28;20524;-69
2021/08/27 07:00:34;;;;;;;2.50;2.30;;;13.90;99.90;;;;;;4997157;28;20496;-69
2021/08/27 07:03:04;;;;;;;2.50;1.93;;;13.90;99.90;;;;;;5018687;28;20841;-71
2021/08/27 07:05:32;;;;;;;3.63;2.03;;;14.00;99.90;;;;;;5008602;28;20444;-70
2021/08/27 07:08:00;;;;;;;2.23;1.73;;;14.10;99.90;;;;;;5030684;28;20410;-71
2021/08/27 07:10:29;;;;;;;1.37;1.17;;;14.30;99.90;;;;;;5035591;28;20432;-70
2021/08/27 07:12:57;;;;;;;1.70;1.23;;;14.50;99.90;;;;;;5015760;28;20476;-71
2021/08/27 07:15:26;;;;;;;2.53;1.60;;;14.60;99.90;;;;;;5015618;28;20447;-70
2021/08/27 07:17:54;;;;;;;3.03;1.50;;;14.60;99.90;;;;;;5015420;28;20403;-72
2021/08/27 07:20:25;;;;;;;8.80;1.80;;;14.60;99.90;;;;;;5025870;28;20988;-71
2021/08/27 07:22:53;;;;;;;2.10;1.30;;;14.60;99.90;;;;;;5035142;28;20442;-70
2021/08/27 07:25:22;;;;;;;1.90;1.40;;;14.80;99.90;;;;;;5035156;28;20432;-71
2021/08/27 07:27:50;;;;;;;2.13;1.43;;;14.70;99.90;;;;;;5035435;28;20437;-70
2021/08/27 07:30:18;;;;;;;2.40;1.57;;;14.70;99.90;;;;;;5035127;28;20448;-71
2021/08/27 07:32:47;;;;;;;1.47;1.07;;;14.70;99.90;;;;;;5034632;28;20902;-70
2021/08/27 07:35:15;;;;;;;2.23;1.33;;;14.80;99.90;;;;;;5034916;28;20802;-70
2021/08/27 07:37:44;;;;;;;4.10;1.77;;;14.90;99.90;;;;;;5034639;28;20386;-70
2021/08/27 07:40:18;;;;;;;1.40;1.17;;;14.90;99.90;;;;;;5034922;28;20476;-70
2021/08/27 07:42:46;;;;;;;1.80;1.40;;;14.90;99.90;;;;;;5034862;28;20476;-71
2021/08/27 07:45:16;;;;;;;2.80;1.87;;;14.90;99.90;;;;;;5034605;28;20424;-71
2021/08/27 07:47:45;;;;;;;1.70;1.60;;;15.00;99.90;;;;;;5034652;28;20838;-69
2021/08/27 07:50:15;;;;;;;3.23;1.63;;;15.20;99.90;;;;;;5034824;28;20846;-69
2021/08/27 07:52:44;;;;;;;4.97;1.57;;;15.30;99.90;;;;;;5034838;28;20446;-69
2021/08/27 07:55:12;;;;;;;1.20;1.07;;;15.30;99.90;;;;;;5034408;28;20503;-69
2021/08/27 07:57:41;;;;;;;1.30;0.87;;;15.50;99.90;;;;;;5034298;28;20432;-70
2021/08/27 08:00:11;;;;;;;2.23;1.10;;;15.70;99.90;;;;;;5034399;28;20443;-69
2021/08/27 08:02:39;;;;;;;1.10;0.90;;;15.70;99.90;;;;;;5034166;28;20448;-69
2021/08/27 08:05:09;;;;;;;1.50;1.30;;;15.80;99.90;;;;;;5016757;28;20473;-69
2021/08/27 08:07:37;;;;;;;1.20;1.07;;;15.70;1.00;;;;;;5034612;28;20502;-71
2021/08/27 08:10:07;;;;;;;2.60;1.27;;;15.50;99.90;;;;;;5035083;28;20394;-70
2021/08/27 08:12:35;;;;;;;1.10;1.00;;;15.50;1.00;;;;;;5015535;28;20476;-70
2021/08/27 08:15:04;;;;;;;2.30;0.90;;;15.60;1.00;;;;;;5014780;28;20433;-70
2021/08/27 08:17:32;;;;;;;1.70;0.80;;;15.90;1.00;;;;;;5014569;28;20490;-70
2021/08/27 08:20:00;;;;;;;1.00;0.70;;;16.30;99.90;;;;;;5014967;28;20425;-69
2021/08/27 08:22:28;;;;;;;1.00;0.60;;;16.40;99.90;;;;;;5015269;28;20766;-71
2021/08/27 08:24:56;;;;;;;1.17;0.70;;;16.20;99.90;;;;;;5014933;28;20483;-70
2021/08/27 08:27:26;;;;;;;1.70;0.57;;;16.20;99.90;;;;;;5014981;28;20412;-70
2021/08/27 08:29:54;;;;;;;1.00;0.60;;;16.10;99.90;;;;;;5015800;28;20989;-70
2021/08/27 08:32:22;;;;;;;0.87;0.57;;;16.10;99.90;;;;;;5015729;28;20882;-69
2021/08/27 08:34:50;;;;;;;1.90;0.63;;;15.90;99.90;;;;;;4998020;28;20421;-70
2021/08/27 08:37:18;;;;;;;1.03;0.50;;;15.70;99.90;;;;;;5014490;28;20413;-71
2021/08/27 08:39:47;;;;;;;1.67;1.00;;;16.00;99.90;;;;;;5014606;28;20432;-71
2021/08/27 08:42:15;;;;;;;2.60;1.80;;;16.00;99.90;;;;;;5022318;28;20419;-71
2021/08/27 08:44:45;;;;;;;1.37;0.70;;;15.70;99.90;;;;;;5028239;28;20400;-69
2021/08/27 08:47:16;;;;;;;2.80;0.83;;;16.00;99.90;;;;;;5027531;28;20404;-69
2021/08/27 08:49:47;;;;;;;2.50;2.30;;;16.20;99.90;;;;;;5028137;28;20404;-71
2021/08/27 08:52:17;;;;;;;3.50;3.20;;;16.60;99.90;;;;;;5027138;28;20789;-69
2021/08/27 08:54:45;;;;;;;2.23;2.07;;;17.10;99.90;;;;;;5027063;28;20432;-70
2021/08/27 08:57:13;;;;;;;1.83;1.00;;;17.40;99.90;;;;;;5023648;28;20437;-70
2021/08/27 08:59:42;;;;;;;3.80;0.70;;;17.60;99.90;;;;;;5014106;28;20437;-72
2021/08/27 09:02:11;;;;;;;1.47;0.90;;;16.90;99.90;;;;;;5042114;23;20549;-66
2021/08/27 09:04:40;;;;;;;1.53;1.43;;;16.90;99.90;;;;;;5023539;28;20398;-66
2021/08/27 09:07:08;;;;;;;1.40;0.80;;;16.90;99.90;;;;;;5030595;28;20483;-66
2021/08/27 09:09:37;;;;;;;5.20;4.80;;;16.80;99.90;;;;;;5032112;28;20746;-66
2021/08/27 09:12:18;;;;;;;4.47;4.17;;;17.00;99.90;;;;;;5032450;28;20527;-65
2021/08/27 09:14:56;;;;;;;0.90;0.80;;;16.80;99.90;;;;;;5032425;28;20420;-67
2021/08/27 09:17:31;;;;;;;1.60;1.50;;;17.00;99.90;;;;;;5032065;28;20585;-67
2021/08/27 09:20:02;;;;;;;3.20;3.00;;;17.20;99.90;;;;;;5032307;28;20423;-65
2021/08/27 09:22:45;;;;;;;2.17;1.37;;;17.20;99.90;;;;;;5031398;28;20513;-65
2021/08/27 09:25:15;;;;;;;1.00;0.80;;;17.20;99.90;;;;;;5014099;28;20966;-66
2021/08/27 09:28:17;;;;;;;0.80;0.57;;;17.10;99.90;;;;;;5031590;28;20395;-67
2021/08/27 09:30:55;;;;;;;0.90;0.57;;;17.40;99.90;;;;;;4932071;29;20837;-66
2021/08/27 09:33:29;;;;;;;1.27;0.60;;;17.60;99.90;;;;;;4931815;29;21007;-66
2021/08/27 09:35:59;;;;;;;1.13;0.70;;;17.90;99.90;;;;;;4988634;28;20432;-66
2021/08/27 09:38:29;;;;;;;1.50;0.70;;;18.00;99.90;;;;;;5031016;28;20391;-66
2021/08/27 09:41:02;;;;;;;4.00;0.70;;;18.00;99.90;;;;;;5031377;28;20892;-67
2021/08/27 09:43:30;;;;;;;1.30;0.67;;;17.80;99.90;;;;;;5031619;28;20417;-67
2021/08/27 09:45:59;;;;;;;0.90;0.60;;;17.50;99.90;;;;;;5030884;28;20962;-67
2021/08/27 09:48:39;;;;;;;1.00;0.77;;;17.50;99.90;;;;;;5031132;28;20765;-66
2021/08/27 09:51:07;;;;;;;0.90;0.63;;;17.40;99.90;;;;;;5015706;28;20426;-68
2021/08/27 09:53:43;;;;;;;2.20;0.90;;;17.40;99.90;;;;;;5030545;28;20905;-67
2021/08/27 09:56:11;;;;;;;2.43;2.23;;;17.40;99.90;;;;;;5030687;28;20420;-66
2021/08/27 09:58:51;;;;;;;1.63;1.00;;;17.40;99.90;;;;;;5030057;28;20403;-67
2021/08/27 10:01:21;;;;;;;16.10;14.00;;;17.30;99.90;;;;;;5031118;28;20769;-67
2021/08/27 10:04:05;;;;;;;11.50;9.33;;;17.30;99.90;;;;;;5030966;28;20980;-66
2021/08/27 10:06:33;;;;;;;13.33;11.90;;;16.90;99.90;;;;;;5031156;28;20427;-66
2021/08/27 10:09:02;;;;;;;11.80;10.70;;;16.80;99.90;;;;;;5030126;28;20498;-66
2021/08/27 10:11:31;;;;;;;4.50;3.80;;;16.70;99.90;;;;;;5021365;28;20951;-66
2021/08/27 10:14:00;;;;;;;14.40;13.10;;;16.80;99.90;;;;;;5010807;28;20817;-67
2021/08/27 10:16:30;;;;;;;2.30;1.70;;;17.10;99.90;;;;;;5010921;28;20415;-67
2021/08/27 10:19:00;;;;;;;2.20;0.93;;;17.30;99.90;;;;;;5010656;28;20503;-67
2021/08/27 10:21:31;;;;;;;4.03;3.70;;;17.40;99.90;;;;;;4993188;28;20432;-67
2021/08/27 10:24:00;;;;;;;7.87;7.10;;;17.50;99.90;;;;;;5010880;28;20410;-67
2021/08/27 10:26:29;;;;;;;7.77;7.07;;;17.60;99.90;;;;;;5010891;28;20428;-66
2021/08/27 10:29:05;;;;;;;4.40;4.03;;;17.50;99.90;;;;;;4993302;28;20444;-67
2021/08/27 10:31:44;;;;;;;1.40;0.90;;;17.50;99.90;;;;;;5010900;28;20426;-66
2021/08/27 10:34:14;;;;;;;1.00;0.70;;;17.30;99.90;;;;;;5010715;28;20493;-67
2021/08/27 10:36:54;;;;;;;1.10;0.80;;;17.20;99.90;;;;;;5011209;28;20427;-66
2021/08/27 10:39:42;;;;;;;3.70;1.33;;;16.90;99.90;;;;;;4993418;28;20485;-67
2021/08/27 10:42:47;;;;;;;2.57;1.93;;;16.70;99.90;;;;;;4973455;28;20462;-68
2021/08/27 10:45:17;;;;;;;1.70;1.30;;;16.70;99.90;;;;;;4996079;28;20902;-66
2021/08/27 10:48:07;;;;;;;4.37;1.33;;;16.90;99.90;;;;;;5010732;28;20456;-67
2021/08/27 10:50:36;;;;;;;1.33;1.07;;;17.10;99.90;;;;;;4994673;28;20465;-67
2021/08/27 10:53:26;;;;;;;5.37;4.40;;;17.20;99.90;;;;;;4991251;28;20541;-66
2021/08/27 10:55:55;;;;;;;2.00;1.50;;;17.30;99.90;;;;;;4973364;28;20451;-68
2021/08/27 10:58:38;;;;;;;1.97;1.67;;;17.40;99.90;;;;;;4991072;28;20897;-67
2021/08/27 11:01:06;;;;;;;2.50;2.30;;;17.30;99.90;;;;;;4990804;28;20457;-67
2021/08/27 11:04:00;;;;;;;2.10;1.40;;;17.30;99.90;;;;;;4990843;28;20413;-65
2021/08/27 11:06:29;;;;;;;2.17;1.50;;;17.20;99.90;;;;;;4990942;28;20401;-66
2021/08/27 11:09:20;;;;;;;3.13;2.83;;;17.00;99.90;;;;;;4990606;28;20792;-68
2021/08/27 11:12:07;;;;;;;3.50;1.30;;;17.00;99.90;;;;;;5001430;28;20448;-67
2021/08/27 11:14:36;;;;;;;2.00;1.53;;;16.80;99.90;;;;;;5010314;28;20560;-70
2021/08/27 11:17:06;;;;;;;1.47;1.27;;;16.70;99.90;;;;;;5010563;28;20404;-66
2021/08/27 11:19:36;;;;;;;2.40;1.37;;;17.00;99.90;;;;;;5010413;28;20407;-67
2021/08/27 11:22:25;;;;;;;2.00;1.70;;;17.50;99.90;;;;;;5010633;28;20456;-67
2021/08/27 11:25:17;;;;;;;1.30;1.07;;;17.70;99.90;;;;;;5010365;28;20406;-67
2021/08/27 11:28:08;;;;;;;1.87;1.43;;;18.00;99.90;;;;;;4998071;28;20856;-68
2021/08/27 11:30:37;;;;;;;2.30;1.30;;;18.20;99.90;;;;;;5030765;28;20482;-65
2021/08/27 11:33:05;;;;;;;1.93;1.53;;;18.40;99.90;;;;;;5034236;28;20855;-67
2021/08/27 11:35:46;;;;;;;2.13;1.33;;;18.40;99.90;;;;;;5033880;28;20443;-67
2021/08/27 11:38:17;;;;;;;1.80;1.27;;;18.20;95.60;;;;;;5016000;28;20493;-66
2021/08/27 11:40:47;;;;;;;1.40;0.70;;;18.10;95.10;;;;;;5033602;28;20443;-67
2021/08/27 11:43:16;;;;;;;1.00;0.70;;;18.00;92.90;;;;;;5016082;28;20455;-67
2021/08/27 11:45:44;;;;;;;1.77;1.23;;;18.00;92.80;;;;;;5033531;28;20402;-66
2021/08/27 11:48:12;;;;;;;1.20;1.10;;;17.80;94.30;;;;;;5033678;28;20929;-66
2021/08/27 11:50:49;;;;;;;1.70;1.20;;;17.60;99.90;;;;;;5033256;28;20424;-67
2021/08/27 11:53:17;;;;;;;2.37;0.90;;;17.40;99.90;;;;;;5033211;28;20811;-66
2021/08/27 11:55:48;;;;;;;1.70;1.40;;;17.40;99.90;;;;;;5015047;28;20442;-67
2021/08/27 11:58:17;;;;;;;1.60;1.43;;;17.50;99.90;;;;;;5033440;28;20399;-65
2021/08/27 12:00:47;;;;;;;1.37;0.80;;;17.40;99.90;;;;;;5033266;28;20416;-66
2021/08/27 12:03:17;;;;;;;1.27;0.97;;;17.50;99.90;;;;;;5033181;28;20434;-65
2021/08/27 12:05:49;;;;;;;1.93;1.00;;;17.90;99.90;;;;;;5032805;28;20410;-67
2021/08/27 12:08:18;;;;;;;1.20;0.80;;;18.20;91.60;;;;;;5033171;28;21266;-66
2021/08/27 12:10:51;;;;;;;1.40;1.10;;;18.10;87.80;;;;;;5032912;28;20517;-66
2021/08/27 12:13:19;;;;;;;3.27;1.37;;;18.30;87.50;;;;;;5015461;28;20458;-66
2021/08/27 12:15:47;;;;;;;1.00;0.80;;;18.40;85.10;;;;;;5032582;28;20455;-67
2021/08/27 12:18:16;;;;;;;3.80;3.50;;;18.70;86.50;;;;;;5032859;28;20842;-63
2021/08/27 12:20:46;;;;;;;2.53;1.97;;;19.00;93.80;;;;;;5033061;28;20435;-67
2021/08/27 12:23:17;;;;;;;3.27;2.97;;;18.40;99.90;;;;;;5032676;28;20522;-66
2021/08/27 12:25:48;;;;;;;2.70;2.00;;;17.30;99.90;;;;;;5027573;28;20400;-66
2021/08/27 12:28:32;;;;;;;3.20;2.13;;;16.60;99.90;;;;;;5013891;28;20399;-67
2021/08/27 12:31:01;;;;;;;1.67;1.57;;;16.30;1.00;;;;;;4996534;28;20412;-67
2021/08/27 12:33:35;;;;;;;1.93;1.77;;;16.10;99.90;;;;;;4997426;28;20473;-66
2021/08/27 12:36:04;;;;;;;2.23;2.13;;;15.90;99.90;;;;;;5013781;28;20950;-66
2021/08/27 12:38:33;;;;;;;2.13;1.93;;;16.00;99.90;;;;;;5014633;28;20785;-67
2021/08/27 12:41:13;;;;;;;2.43;2.27;;;16.10;99.90;;;;;;5013185;28;20473;-67
2021/08/27 12:43:44;;;;;;;1.50;1.40;;;16.20;99.90;;;;;;5012012;28;20459;-66
2021/08/27 12:46:27;;;;;;;1.20;1.07;;;16.20;99.90;;;;;;5012677;28;20945;-66
2021/08/27 12:49:14;;;;;;;1.90;1.77;;;16.30;99.90;;;;;;5009962;28;20396;-67
2021/08/27 12:51:43;;;;;;;1.73;1.50;;;16.60;99.90;;;;;;4992956;28;20444;-68
2021/08/27 12:54:12;;;;;;;1.60;0.73;;;16.50;99.90;;;;;;4992765;28;20422;-66
2021/08/27 12:56:41;;;;;;;1.40;0.90;;;16.40;99.90;;;;;;4992719;28;20477;-67
2021/08/27 12:59:18;;;;;;;1.10;0.80;;;16.40;99.90;;;;;;4992778;28;20428;-66
2021/08/27 13:01:47;;;;;;;1.27;0.70;;;16.50;99.90;;;;;;4992667;28;20853;-67
2021/08/27 13:04:20;;;;;;;1.00;0.77;;;16.60;99.90;;;;;;5020132;28;20423;-66
2021/08/27 13:06:52;;;;;;;1.23;0.70;;;16.80;99.90;;;;;;5031460;28;20432;-67
2021/08/27 13:09:31;;;;;;;1.50;0.90;;;16.90;99.90;;;;;;5032163;28;20409;-67
2021/08/27 13:12:00;;;;;;;0.90;0.60;;;16.90;99.90;;;;;;5000331;28;20486;-67